createdAt,value
2022-09-06T00:01:38.840Z,101124.78
2022-09-06T00:04:05.763Z,101118.75
2022-09-06T00:06:32.615Z,101122.13
2022-09-06T00:08:59.817Z,101123.78
2022-09-06T00:11:26.687Z,101112.78
2022-09-06T00:13:53.462Z,101114.41
2022-09-06T00:16:29.791Z,101115.91
2022-09-06T00:18:57.370Z,101111.19
2022-09-06T00:21:30.780Z,101107.66
2022-09-06T00:23:57.695Z,101107.44
2022-09-06T00:26:25.184Z,101107.16
2022-09-06T00:28:51.949Z,101098.44
2022-09-06T00:31:21.913Z,101101.03
2022-09-06T00:33:49.027Z,101093.38
2022-09-06T00:36:16.474Z,101089.22
2022-09-06T00:38:43.778Z,101088.09
2022-09-06T00:41:12.286Z,101083.34
2022-09-06T00:43:39.318Z,101087.47
2022-09-06T00:46:08.365Z,101088.19
2022-09-06T00:48:36.077Z,101087.00
2022-09-06T00:51:05.478Z,101081.22
2022-09-06T00:53:32.680Z,101081.81
2022-09-06T00:56:00.005Z,101077.66
2022-09-06T00:58:27.128Z,101073.59
2022-09-06T01:00:54.108Z,101071.59
2022-09-06T01:03:22.477Z,101080.44
2022-09-06T01:05:55.253Z,101079.13
2022-09-06T01:08:28.178Z,101085.34
2022-09-06T01:11:15.447Z,101084.63
2022-09-06T01:13:49.386Z,101083.88
2022-09-06T01:16:25.691Z,101096.94
2022-09-06T01:18:59.802Z,101088.25
2022-09-06T01:21:35.659Z,101104.75
2022-09-06T01:24:25.461Z,101104.59
2022-09-06T01:27:04.292Z,101113.41
2022-09-06T01:29:45.394Z,101106.28
2022-09-06T01:32:32.952Z,101100.13
2022-09-06T01:35:35.102Z,101112.09
2022-09-06T01:38:02.243Z,101120.69
2022-09-06T01:40:29.085Z,101109.78
2022-09-06T01:42:56.236Z,101114.97
2022-09-06T01:45:47.891Z,101099.09
2022-09-06T01:48:50.041Z,101110.34
2022-09-06T01:51:44.122Z,101112.09
2022-09-06T01:54:16.887Z,101113.22
2022-09-06T01:56:48.958Z,101109.53
2022-09-06T02:00:09.164Z,101108.63
2022-09-06T02:03:19.749Z,101102.25
2022-09-06T02:06:10.665Z,101104.69
2022-09-06T02:08:41.050Z,101099.53
2022-09-06T02:11:08.938Z,101096.44
2022-09-06T02:13:50.183Z,101108.50
2022-09-06T02:16:20.991Z,101100.88
2022-09-06T02:19:03.865Z,101100.28
2022-09-06T02:21:32.697Z,101087.97
2022-09-06T02:24:01.637Z,101091.41
2022-09-06T02:26:30.984Z,101093.84
2022-09-06T02:28:57.785Z,101094.94
2022-09-06T02:31:31.946Z,101095.41
2022-09-06T02:33:58.898Z,101095.31
2022-09-06T02:36:25.832Z,101102.56
2022-09-06T02:38:54.273Z,101101.66
2022-09-06T02:41:23.161Z,101086.31
2022-09-06T02:43:50.332Z,101103.56
2022-09-06T02:46:17.225Z,101102.63
2022-09-06T02:48:44.028Z,101101.53
2022-09-06T02:51:10.911Z,101096.00
2022-09-06T02:53:37.908Z,101092.03
2022-09-06T02:56:04.947Z,101091.56
2022-09-06T02:58:31.796Z,101096.34
2022-09-06T03:00:58.556Z,101092.44
2022-09-06T03:03:25.375Z,101103.50
2022-09-06T03:05:53.426Z,101085.63
2022-09-06T03:08:21.959Z,101096.09
2022-09-06T03:10:50.192Z,101083.28
2022-09-06T03:13:17.128Z,101088.84
2022-09-06T03:15:44.293Z,101089.41
2022-09-06T03:18:11.345Z,101086.25
2022-09-06T03:20:38.009Z,101085.09
2022-09-06T03:23:04.737Z,101095.09
2022-09-06T03:25:31.469Z,101093.50
2022-09-06T03:27:58.113Z,101101.59
2022-09-06T03:30:24.863Z,101096.16
2022-09-06T03:32:51.695Z,101087.25
2022-09-06T03:35:18.357Z,101095.09
2022-09-06T03:37:45.062Z,101096.53
2022-09-06T03:40:12.179Z,101094.78
2022-09-06T03:42:38.935Z,101086.03
2022-09-06T03:45:06.394Z,101095.56
2022-09-06T03:47:33.482Z,101086.75
2022-09-06T03:50:00.391Z,101090.97
2022-09-06T03:52:27.083Z,101095.56
2022-09-06T03:54:53.786Z,101093.34
2022-09-06T03:57:20.484Z,101089.00
2022-09-06T03:59:47.180Z,101096.91
2022-09-06T04:02:14.104Z,101081.81
2022-09-06T04:04:40.821Z,101083.78
2022-09-06T04:07:07.492Z,101083.34
2022-09-06T04:09:34.765Z,101087.91
2022-09-06T04:12:01.491Z,101080.13
2022-09-06T04:14:28.230Z,101077.94
2022-09-06T04:16:55.218Z,101088.00
2022-09-06T04:19:22.233Z,101079.72
2022-09-06T04:21:49.114Z,101071.47
2022-09-06T04:24:15.807Z,101063.69
2022-09-06T04:26:43.369Z,101073.16
2022-09-06T04:29:10.051Z,101067.19
2022-09-06T04:31:36.916Z,101074.66
2022-09-06T04:34:03.776Z,101079.16
2022-09-06T04:36:30.521Z,101061.81
2022-09-06T04:38:57.292Z,101077.69
2022-09-06T04:41:24.065Z,101075.66
2022-09-06T04:43:50.781Z,101075.50
2022-09-06T04:46:24.956Z,101077.63
2022-09-06T04:48:53.261Z,101084.50
2022-09-06T04:51:20.505Z,101083.50
2022-09-06T04:53:47.661Z,101088.59
2022-09-06T04:56:19.723Z,101089.50
2022-09-06T04:58:47.607Z,101096.41
2022-09-06T05:01:14.483Z,101094.56
2022-09-06T05:03:41.285Z,101085.94
2022-09-06T05:06:14.620Z,101092.50
2022-09-06T05:08:41.923Z,101094.41
2022-09-06T05:11:09.271Z,101094.81
2022-09-06T05:13:35.988Z,101090.59
2022-09-06T05:16:04.916Z,101093.31
2022-09-06T05:18:31.894Z,101106.84
2022-09-06T05:20:59.128Z,101087.75
2022-09-06T05:23:26.251Z,101089.00
2022-09-06T05:25:53.335Z,101096.91
2022-09-06T05:28:20.476Z,101088.31
2022-09-06T05:30:47.303Z,101097.16
2022-09-06T05:33:18.699Z,101092.41
2022-09-06T05:35:45.509Z,101093.31
2022-09-06T05:38:12.243Z,101085.84
2022-09-06T05:40:39.079Z,101079.06
2022-09-06T05:43:05.772Z,101088.53
2022-09-06T05:45:33.314Z,101093.75
2022-09-06T05:48:00.119Z,101086.81
2022-09-06T05:50:26.843Z,101093.78
2022-09-06T05:52:54.240Z,101079.94
2022-09-06T05:55:21.051Z,101093.19
2022-09-06T05:57:48.009Z,101090.25
2022-09-06T06:00:14.977Z,101089.75
2022-09-06T06:02:42.035Z,101086.22
2022-09-06T06:05:09.048Z,101081.97
2022-09-06T06:07:35.800Z,101083.44
2022-09-06T06:10:02.769Z,101081.59
2022-09-06T06:12:29.591Z,101080.28
2022-09-06T06:14:56.222Z,101077.91
2022-09-06T06:17:23.588Z,101079.91
2022-09-06T06:19:50.396Z,101068.91
2022-09-06T06:22:17.184Z,101059.03
2022-09-06T06:24:44.632Z,101063.53
2022-09-06T06:27:11.450Z,101061.28
2022-09-06T06:29:38.208Z,101057.13
2022-09-06T06:32:05.111Z,101060.66
2022-09-06T06:34:31.944Z,101056.25
2022-09-06T06:36:59.163Z,101054.06
2022-09-06T06:39:26.075Z,101054.00
2022-09-06T06:41:53.330Z,101062.81
2022-09-06T06:44:37.286Z,101062.31
2022-09-06T06:47:04.227Z,101067.06
2022-09-06T06:49:31.036Z,101062.50
2022-09-06T06:51:57.803Z,101067.47
2022-09-06T06:54:24.514Z,101057.41
2022-09-06T06:56:51.987Z,101055.50
2022-09-06T06:59:18.720Z,101043.28
2022-09-06T07:01:45.523Z,101047.81
2022-09-06T07:04:12.587Z,101047.50
2022-09-06T07:12:27.068Z,101044.34
2022-09-06T07:14:54.053Z,101054.97
2022-09-06T07:17:20.696Z,101059.72
2022-09-06T07:22:34.024Z,101082.41
2022-09-06T07:25:00.710Z,101091.66
2022-09-06T07:30:14.362Z,101103.03
2022-09-06T07:32:41.083Z,101094.78
2022-09-06T07:35:08.246Z,101085.13
2022-09-06T07:37:35.451Z,101079.63
2022-09-06T07:40:03.755Z,101093.25
2022-09-06T07:42:36.181Z,101099.72
2022-09-06T07:45:04.947Z,101098.13
2022-09-06T07:53:11.960Z,101089.34
2022-09-06T07:55:42.728Z,101097.28
2022-09-06T07:58:09.418Z,101092.19
2022-09-06T08:00:36.265Z,101103.22
2022-09-06T08:03:03.020Z,101108.59
2022-09-06T08:11:03.718Z,101101.31
2022-09-06T08:13:30.451Z,101102.66
2022-09-06T08:16:06.046Z,101108.19
2022-09-06T08:18:33.547Z,101097.50
2022-09-06T08:21:16.422Z,101102.25
2022-09-06T08:23:51.599Z,101106.00
2022-09-06T08:26:21.173Z,101105.25
2022-09-06T08:28:48.624Z,101094.28
2022-09-06T08:31:17.435Z,101096.47
2022-09-06T08:33:44.614Z,101092.75
2022-09-06T08:36:11.534Z,101104.03
2022-09-06T08:38:38.296Z,101101.69
2022-09-06T08:41:31.264Z,101094.31
2022-09-06T08:47:04.635Z,101106.03
2022-09-06T08:49:34.094Z,101098.56
2022-09-06T08:52:03.865Z,101100.63
2022-09-06T08:54:42.609Z,101092.16
2022-09-06T08:57:54.799Z,101090.22
2022-09-06T09:00:24.912Z,101098.03
2022-09-06T09:02:58.426Z,101102.72
2022-09-06T09:05:31.738Z,101104.31
2022-09-06T09:08:01.456Z,101109.59
2022-09-06T09:10:42.665Z,101110.91
2022-09-06T09:13:17.770Z,101103.50
2022-09-06T09:15:44.719Z,101108.78
2022-09-06T09:18:11.741Z,101106.56
2022-09-06T09:20:39.005Z,101102.78
2022-09-06T09:23:08.920Z,101098.81
2022-09-06T09:25:39.484Z,101107.72
2022-09-06T09:28:16.658Z,101090.72
2022-09-06T09:30:49.896Z,101096.88
2022-09-06T09:33:32.042Z,101095.22
2022-09-06T09:36:01.435Z,101101.06
2022-09-06T09:38:31.143Z,101095.59
2022-09-06T09:41:00.739Z,101099.41
2022-09-06T09:43:32.664Z,101107.44
2022-09-06T09:46:25.273Z,101101.38
2022-09-06T09:49:07.320Z,101101.56
2022-09-06T09:51:39.028Z,101102.94
2022-09-06T09:54:11.737Z,101101.56
2022-09-06T09:56:47.869Z,101103.72
2022-09-06T09:59:25.043Z,101099.81
2022-09-06T10:01:58.460Z,101100.88
2022-09-06T10:04:45.254Z,101098.69
2022-09-06T10:07:15.740Z,101097.63
2022-09-06T10:09:47.292Z,101099.25
2022-09-06T10:12:19.667Z,101091.63
2022-09-06T10:14:49.628Z,101096.25
2022-09-06T10:17:30.832Z,101088.56
2022-09-06T10:20:00.809Z,101093.56
2022-09-06T10:22:32.330Z,101097.28
2022-09-06T10:25:19.901Z,101109.41
2022-09-06T10:28:10.844Z,101102.31
2022-09-06T10:30:46.203Z,101100.78
2022-09-06T10:33:27.959Z,101101.72
2022-09-06T10:35:57.456Z,101091.72
2022-09-06T10:38:45.793Z,101095.03
2022-09-06T10:41:34.537Z,101090.03
2022-09-06T10:44:10.528Z,101093.09
2022-09-06T10:46:38.355Z,101097.31
2022-09-06T10:49:06.832Z,101100.41
2022-09-06T10:51:50.347Z,101099.81
2022-09-06T10:54:22.382Z,101093.03
2022-09-06T10:57:03.295Z,101100.88
2022-09-06T10:59:39.249Z,101080.97
2022-09-06T11:02:35.237Z,101088.69
2022-09-06T11:10:49.840Z,101094.41
2022-09-06T11:13:20.692Z,101095.06
2022-09-06T11:16:18.255Z,101096.56
2022-09-06T11:18:59.604Z,101096.34
2022-09-06T11:22:11.099Z,101090.38
2022-09-06T11:24:56.280Z,101098.56
2022-09-06T11:27:33.701Z,101092.91
2022-09-06T11:30:01.797Z,101097.56
2022-09-06T11:32:38.943Z,101100.88
2022-09-06T11:35:28.250Z,101097.94
2022-09-06T11:38:25.084Z,101100.84
2022-09-06T11:40:59.479Z,101096.13
2022-09-06T11:43:46.008Z,101093.47
2022-09-06T11:46:35.653Z,101103.91
2022-09-06T11:49:11.474Z,101086.13
2022-09-06T11:51:40.317Z,101096.63
2022-09-06T11:54:31.503Z,101096.13
2022-09-06T11:57:03.515Z,101087.22
2022-09-06T11:59:36.425Z,101082.72
2022-09-06T12:02:06.958Z,101085.63
2022-09-06T12:05:00.402Z,101073.09
2022-09-06T12:07:28.488Z,101076.91
2022-09-06T12:09:55.302Z,101077.03
2022-09-06T12:12:44.239Z,101074.84
2022-09-06T12:15:25.356Z,101068.84
2022-09-06T12:17:52.549Z,101070.25
2022-09-06T12:20:54.433Z,101073.66
2022-09-06T12:23:36.480Z,101063.06
2022-09-06T12:26:03.152Z,101060.53
2022-09-06T12:28:42.811Z,101058.03
2022-09-06T12:31:38.049Z,101049.56
2022-09-06T12:34:19.658Z,101043.09
2022-09-06T12:36:53.707Z,101043.88
2022-09-06T12:39:21.581Z,101034.59
2022-09-06T12:42:00.850Z,101032.19
2022-09-06T12:44:32.695Z,101030.63
2022-09-06T12:47:06.916Z,101031.06
2022-09-06T12:49:33.777Z,101040.09
2022-09-06T12:52:10.813Z,101030.78
2022-09-06T12:54:50.179Z,101033.88
2022-09-06T12:57:24.496Z,101021.66
2022-09-06T12:59:56.371Z,101020.53
2022-09-06T13:02:34.913Z,101018.78
2022-09-06T13:05:11.229Z,101009.47
2022-09-06T13:07:47.680Z,101010.34
2022-09-06T13:10:16.604Z,101009.41
2022-09-06T13:12:45.800Z,100998.47
2022-09-06T13:15:27.719Z,101004.03
2022-09-06T13:17:55.774Z,101000.63
2022-09-06T13:20:25.864Z,101009.50
2022-09-06T13:22:54.344Z,100998.91
2022-09-06T13:25:21.188Z,101003.91
2022-09-06T13:27:58.301Z,101004.06
2022-09-06T13:30:38.760Z,100995.41
2022-09-06T13:33:07.549Z,100993.13
2022-09-06T13:35:36.795Z,100992.19
2022-09-06T13:38:55.681Z,100992.22
2022-09-06T13:41:25.328Z,100987.81
2022-09-06T13:44:17.377Z,100982.31
2022-09-06T13:46:44.863Z,100986.00
2022-09-06T13:49:11.778Z,100987.50
2022-09-06T13:51:39.354Z,100979.38
2022-09-06T13:54:13.413Z,100974.00
2022-09-06T13:56:41.669Z,100979.78
2022-09-06T13:59:11.792Z,100966.41
2022-09-06T14:01:40.306Z,100978.84
2022-09-06T14:04:07.319Z,100974.72
2022-09-06T14:06:36.974Z,100971.06
2022-09-06T14:09:08.247Z,100977.94
2022-09-06T14:11:35.977Z,100965.25
2022-09-06T14:14:02.711Z,100962.06
2022-09-06T14:16:30.124Z,100961.38
2022-09-06T14:18:56.932Z,100948.75
2022-09-06T14:21:23.920Z,100949.34
2022-09-06T14:23:51.662Z,100946.34
2022-09-06T14:26:20.486Z,100942.25
2022-09-06T14:28:47.360Z,100945.00
2022-09-06T14:31:22.206Z,100942.50
2022-09-06T14:33:49.157Z,100931.72
2022-09-06T14:36:17.888Z,100931.91
2022-09-06T14:38:45.897Z,100944.75
2022-09-06T14:41:16.535Z,100941.84
2022-09-06T14:43:44.467Z,100943.38
2022-09-06T14:46:14.387Z,100936.41
2022-09-06T14:48:42.662Z,100933.34
2022-09-06T14:51:09.648Z,100934.31
2022-09-06T14:53:41.329Z,100926.34
2022-09-06T14:56:09.065Z,100923.41
2022-09-06T14:58:37.558Z,100927.09
2022-09-06T15:01:37.134Z,100932.19
2022-09-06T15:04:06.549Z,100923.25
2022-09-06T15:06:36.597Z,100920.97
2022-09-06T15:09:04.429Z,100918.25
2022-09-06T15:11:31.111Z,100913.94
2022-09-06T15:13:58.540Z,100915.88
2022-09-06T15:16:25.602Z,100916.16
2022-09-06T15:18:52.388Z,100913.50
2022-09-06T15:21:19.723Z,100913.75
2022-09-06T15:23:46.441Z,100911.84
2022-09-06T15:26:15.712Z,100908.34
2022-09-06T15:28:46.585Z,100912.63
2022-09-06T15:31:15.181Z,100901.31
2022-09-06T15:33:45.533Z,100897.75
2022-09-06T15:36:13.403Z,100900.47
2022-09-06T15:38:43.256Z,100896.63
2022-09-06T15:41:12.619Z,100900.38
2022-09-06T15:43:42.709Z,100897.13
2022-09-06T15:46:11.746Z,100878.75
2022-09-06T15:48:44.372Z,100887.38
2022-09-06T15:51:17.332Z,100874.38
2022-09-06T15:53:47.965Z,100872.50
2022-09-06T15:56:17.691Z,100875.84
2022-09-06T15:58:46.881Z,100871.94
2022-09-06T16:01:19.910Z,100875.47
2022-09-06T16:04:04.138Z,100868.47
2022-09-06T16:06:39.704Z,100862.88
2022-09-06T16:09:14.193Z,100861.13
2022-09-06T16:11:43.151Z,100854.19
2022-09-06T16:14:14.334Z,100843.22
2022-09-06T16:16:43.339Z,100849.25
2022-09-06T16:19:12.381Z,100836.50
2022-09-06T16:21:41.850Z,100842.09
2022-09-06T16:24:11.362Z,100849.22
2022-09-06T16:26:41.965Z,100849.19
2022-09-06T16:29:09.920Z,100848.25
2022-09-06T16:31:40.371Z,100842.09
2022-09-06T16:34:09.056Z,100850.25
2022-09-06T16:36:36.327Z,100847.00
2022-09-06T16:39:03.762Z,100840.47
2022-09-06T16:41:37.741Z,100846.06
2022-09-06T16:44:04.615Z,100841.72
2022-09-06T16:46:31.458Z,100843.19
2022-09-06T16:49:03.256Z,100842.16
2022-09-06T16:51:31.412Z,100833.50
2022-09-06T16:53:59.346Z,100844.19
2022-09-06T16:56:28.828Z,100842.47
2022-09-06T16:58:57.715Z,100833.31
2022-09-06T17:01:29.880Z,100819.88
2022-09-06T17:03:57.472Z,100832.44
2022-09-06T17:06:25.700Z,100827.13
2022-09-06T17:08:52.421Z,100817.97
2022-09-06T17:11:21.177Z,100817.72
2022-09-06T17:13:49.873Z,100823.88
2022-09-06T17:16:35.704Z,100820.81
2022-09-06T17:19:02.886Z,100820.25
2022-09-06T17:21:30.205Z,100807.69
2022-09-06T17:23:59.860Z,100803.69
2022-09-06T17:26:26.597Z,100807.47
2022-09-06T17:28:53.466Z,100805.53
2022-09-06T17:31:25.553Z,100803.97
2022-09-06T17:33:53.783Z,100811.81
2022-09-06T17:36:23.817Z,100804.31
2022-09-06T17:38:53.712Z,100806.69
2022-09-06T17:41:24.287Z,100804.09
2022-09-06T17:43:53.776Z,100796.94
2022-09-06T17:46:28.511Z,100803.97
2022-09-06T17:48:56.383Z,100797.81
2022-09-06T17:51:24.344Z,100795.97
2022-09-06T17:53:52.124Z,100784.66
2022-09-06T17:56:19.686Z,100782.56
2022-09-06T17:59:01.172Z,100780.13
2022-09-06T18:01:30.044Z,100789.13
2022-09-06T18:03:57.314Z,100785.13
2022-09-06T18:06:25.393Z,100793.72
2022-09-06T18:08:54.196Z,100797.28
2022-09-06T18:11:24.511Z,100792.59
2022-09-06T18:14:09.049Z,100789.03
2022-09-06T18:16:37.640Z,100795.13
2022-09-06T18:19:06.187Z,100789.13
2022-09-06T18:21:35.492Z,100794.09
2022-09-06T18:24:02.847Z,100788.97
2022-09-06T18:26:29.790Z,100794.34
2022-09-06T18:28:56.562Z,100786.09
2022-09-06T18:31:25.632Z,100784.53
2022-09-06T18:33:52.571Z,100780.69
2022-09-06T18:36:19.806Z,100778.50
2022-09-06T18:38:47.066Z,100777.41
2022-09-06T18:41:34.827Z,100777.19
2022-09-06T18:44:05.746Z,100771.16
2022-09-06T18:46:34.618Z,100764.81
2022-09-06T18:49:01.515Z,100762.28
2022-09-06T18:51:28.942Z,100758.00
2022-09-06T18:53:57.414Z,100762.19
2022-09-06T18:56:24.314Z,100754.34
2022-09-06T18:58:54.877Z,100749.75
2022-09-06T19:01:21.961Z,100750.22
2022-09-06T19:03:48.741Z,100739.56
2022-09-06T19:06:18.934Z,100735.09
2022-09-06T19:08:46.733Z,100743.75
2022-09-06T19:11:17.026Z,100737.63
2022-09-06T19:13:44.854Z,100736.22
2022-09-06T19:16:13.026Z,100735.72
2022-09-06T19:18:40.176Z,100738.91
2022-09-06T19:21:18.268Z,100736.50
2022-09-06T19:23:46.981Z,100735.31
2022-09-06T19:26:16.958Z,100728.59
2022-09-06T19:29:01.229Z,100742.53
2022-09-06T19:31:31.260Z,100742.81
2022-09-06T19:33:58.612Z,100751.50
2022-09-06T19:36:27.481Z,100739.59
2022-09-06T19:39:04.015Z,100739.38
2022-09-06T19:41:39.152Z,100737.53
2022-09-06T19:44:08.479Z,100738.56
2022-09-06T19:46:36.176Z,100740.16
2022-09-06T19:49:03.382Z,100738.44
2022-09-06T19:51:30.254Z,100727.81
2022-09-06T19:53:58.178Z,100716.56
2022-09-06T19:56:27.245Z,100718.91
2022-09-06T19:58:55.642Z,100712.81
2022-09-06T20:01:23.682Z,100714.84
2022-09-06T20:03:50.645Z,100715.97
2022-09-06T20:06:17.575Z,100716.22
2022-09-06T20:08:44.433Z,100711.94
2022-09-06T20:11:12.749Z,100717.66
2022-09-06T20:13:39.798Z,100718.84
2022-09-06T20:16:08.803Z,100715.94
2022-09-06T20:18:36.223Z,100714.63
2022-09-06T20:21:03.313Z,100708.97
2022-09-06T20:23:31.397Z,100712.50
2022-09-06T20:26:08.013Z,100694.00
2022-09-06T20:28:35.322Z,100698.59
2022-09-06T20:31:06.992Z,100690.53
2022-09-06T20:33:34.264Z,100679.47
2022-09-06T20:36:03.079Z,100688.28
2022-09-06T20:38:30.942Z,100676.66
2022-09-06T20:41:07.812Z,100670.13
2022-09-06T20:43:36.718Z,100669.69
2022-09-06T20:46:15.498Z,100663.16
2022-09-06T20:48:44.932Z,100652.31
2022-09-06T20:51:19.143Z,100665.81
2022-09-06T20:53:53.430Z,100670.00
2022-09-06T20:56:26.226Z,100670.34
2022-09-06T20:58:55.407Z,100682.41
2022-09-06T21:01:27.115Z,100677.41
2022-09-06T21:03:56.141Z,100692.69
2022-09-06T21:06:24.391Z,100696.22
2022-09-06T21:08:51.459Z,100698.66
2022-09-06T21:11:18.478Z,100716.69
2022-09-06T21:13:51.761Z,100708.94
2022-09-06T21:16:24.586Z,100740.38
2022-09-06T21:18:57.073Z,100758.19
2022-09-06T21:21:25.926Z,100783.50
2022-09-06T21:23:54.836Z,100765.78
2022-09-06T21:26:22.434Z,100776.72
2022-09-06T21:28:50.215Z,100769.34
2022-09-06T21:31:52.081Z,100820.75
2022-09-06T21:34:19.006Z,100895.13
2022-09-06T21:36:46.417Z,100921.69
2022-09-06T21:39:13.437Z,100954.22
2022-09-06T21:41:42.249Z,100965.28
2022-09-06T21:44:09.411Z,100928.16
2022-09-06T21:46:37.858Z,100961.34
2022-09-06T21:49:13.627Z,100949.81
2022-09-06T21:51:41.631Z,100940.97
2022-09-06T21:54:08.664Z,100944.94
2022-09-06T21:56:37.032Z,100927.53
2022-09-06T21:59:04.919Z,100939.31
2022-09-06T22:01:35.067Z,100931.06
2022-09-06T22:04:02.444Z,100922.09
2022-09-06T22:06:31.320Z,100924.75
2022-09-06T22:09:00.257Z,100925.91
2022-09-06T22:11:29.652Z,100924.41
2022-09-06T22:14:04.258Z,100914.97
2022-09-06T22:16:32.911Z,100923.41
2022-09-06T22:18:59.781Z,100926.53
2022-09-06T22:21:26.652Z,100917.44
2022-09-06T22:23:56.159Z,100920.94
2022-09-06T22:26:24.704Z,100922.63
2022-09-06T22:28:56.527Z,100930.09
2022-09-06T22:31:24.558Z,100922.56
2022-09-06T22:33:51.581Z,100924.19
2022-09-06T22:36:21.328Z,100920.25
2022-09-06T22:38:48.189Z,100922.63
2022-09-06T22:41:15.435Z,100919.88
2022-09-06T22:43:42.335Z,100902.13
2022-09-06T22:46:10.427Z,100919.91
2022-09-06T22:48:37.469Z,100920.31
2022-09-06T22:51:06.205Z,100923.03
2022-09-06T22:53:35.361Z,100921.06
2022-09-06T22:56:02.683Z,100907.63
2022-09-06T22:58:29.666Z,100896.59
2022-09-06T23:00:57.163Z,100901.66
2022-09-06T23:03:24.139Z,100882.66
2022-09-06T23:05:51.240Z,100865.69
2022-09-06T23:08:18.078Z,100867.22
2022-09-06T23:10:44.957Z,100870.88
2022-09-06T23:13:11.762Z,100862.56
2022-09-06T23:15:40.830Z,100867.31
2022-09-06T23:18:08.509Z,100853.88
2022-09-06T23:20:37.171Z,100850.41
2022-09-06T23:23:04.803Z,100844.03
2022-09-06T23:25:31.645Z,100836.97
2022-09-06T23:27:59.767Z,100837.72
2022-09-06T23:30:26.721Z,100845.63
2022-09-06T23:32:53.487Z,100831.03
2022-09-06T23:35:20.390Z,100835.78
2022-09-06T23:37:50.101Z,100834.25
2022-09-06T23:40:18.059Z,100848.06
2022-09-06T23:42:45.473Z,100852.00
2022-09-06T23:45:12.518Z,100855.94
2022-09-06T23:47:39.522Z,100867.78
2022-09-06T23:50:07.352Z,100877.25
2022-09-06T23:52:34.132Z,100874.88
2022-09-06T23:55:01.177Z,100880.00
2022-09-06T23:57:27.923Z,100880.78
2022-09-06T23:59:54.715Z,100873.72
